Middlebury State AP, Middlebu, VT

7:16 AM EST on November 17, 2019 (GMT -0500)
Middlebury State AP, Middlebu

Weather History for K6B0 - June, 2019

Change the Weather History Date:

Sunday, June 9, 2019

  Actual Average (WUND) Record (WUND)
Temperature  
Mean Temperature 63 °F -  
Max Temperature 82 °F - - (-1)
Min Temperature 44 °F - - (-1)
Degree Days  
Heating Degree Days 2    
Growing Degree Days 13 (Base 50)    
Moisture  
Dew Point 45 °F    
Average Humidity 55    
Maximum Humidity 87    
Minimum Humidity 24    
Precipitation  
Precipitation 0.00 in - - ()
Sea Level Pressure  
Sea Level Pressure 30.27 in    
Wind  
Wind Speed 1 mph (SW)    
Max Wind Speed 8 mph    
Max Gust Speed -    
Visibility 10 miles    
Events      
Averages and records for this station are not official NWS values.
T = Trace of Precipitation, MM = Missing Value Source: NWS Daily Summary

Daily Weather History Graph

Daily Weather History Graph

Search for Another Location

Airport or City:

Astronomy

Jun. 09, 2019 Rise Set
Actual Time 5:09 AM EDT 8:33 PM EDT
Civil Twilight 4:33 AM EDT 9:09 PM EDT
Nautical Twilight 3:46 AM EDT 9:56 PM EDT
Astronomical Twilight 2:47 AM EDT 10:56 PM EDT
Moon 11:52 AM EDT (6/9) 1:05 AM EDT (6/9)
Length of Visible Light 16h 36m
Length of Day
15h 24m
Waxing Crescent, 43% of the Moon is Illuminated
Jun 9
Waxing Crescent
Jun 10
First Quarter
Jun 17
Full
Jun 25
Last Quarter
Jul 2
New

Hourly Weather History & Observations

Time (EDT) Temp. Windchill Dew Point Humidity Pressure Visibility Wind Dir Wind Speed Gust Speed Precip Events Conditions
12:15 AM 50.9 °F - 40.3 °F 67% 30.25 in 10.0 mi Calm Calm - N/A   Clear
12:19 AM 50.2 °F - 40.5 °F 69% 30.25 in 10.0 mi Calm Calm - N/A   Clear
12:37 AM 51.1 °F - 41.2 °F 69% 30.26 in 10.0 mi Calm Calm - N/A   Clear
12:56 AM 49.3 °F - 41.4 °F 74% 30.27 in 10.0 mi Calm Calm - N/A   Clear
1:16 AM 48.2 °F - 40.5 °F 75% 30.27 in 10.0 mi South 3.5 mph - N/A   Clear
1:35 AM 48.2 °F - 41.4 °F 77% 30.27 in 10.0 mi Calm Calm - N/A   Clear
1:36 AM 48.2 °F - 41.5 °F 78% 30.27 in 10.0 mi Calm Calm - N/A   Clear
1:59 AM 46.6 °F - 41.0 °F 81% 30.27 in 10.0 mi Calm Calm - N/A   Clear
2:16 AM 46.4 °F - 40.8 °F 81% 30.27 in 10.0 mi Calm Calm - N/A   Clear
2:36 AM 46.4 °F - 40.8 °F 81% 30.28 in 10.0 mi Calm Calm - N/A   Clear
2:55 AM 46.0 °F - 41.0 °F 83% 30.27 in 10.0 mi Calm Calm - N/A   Clear
2:56 AM 45.9 °F - 41.0 °F 83% 30.28 in 10.0 mi Calm Calm - N/A   Clear
3:15 AM 45.3 °F - 39.9 °F 81% 30.28 in 10.0 mi Calm Calm - N/A   Clear
3:19 AM 45.0 °F - 40.3 °F 84% 30.28 in 10.0 mi Calm Calm - N/A   Clear
3:37 AM 45.5 °F - 39.6 °F 80% 30.27 in 10.0 mi Calm Calm - N/A   Clear
3:55 AM 44.6 °F 42.2 °F 40.1 °F 84% 30.27 in 10.0 mi North 4.6 mph - N/A   Clear
4:16 AM 45.7 °F - 40.5 °F 82% 30.28 in 10.0 mi Calm Calm - N/A   Clear
4:35 AM 45.5 °F - 39.9 °F 81% 30.29 in 10.0 mi Calm Calm - N/A   Clear
4:36 AM 45.7 °F - 39.9 °F 80% 30.29 in 10.0 mi Calm Calm - N/A   Clear
4:59 AM 45.3 °F - 39.9 °F 81% 30.30 in 10.0 mi Calm Calm - N/A   Clear
5:17 AM 45.1 °F - 39.4 °F 80% 30.30 in 10.0 mi Calm Calm - N/A   Clear
5:35 AM 44.8 °F - 39.9 °F 83% 30.31 in 10.0 mi Calm Calm - N/A   Clear
5:36 AM 44.8 °F - 39.9 °F 83% 30.31 in 10.0 mi Calm Calm - N/A   Clear
5:55 AM 45.1 °F - 40.3 °F 83% 30.32 in 10.0 mi Calm Calm - N/A   Clear
5:56 AM 45.1 °F - 40.3 °F 83% 30.32 in 10.0 mi Calm Calm - N/A   Clear
6:15 AM 44.8 °F - 41.2 °F 87% 30.32 in 10.0 mi Calm Calm - N/A   Clear
6:19 AM 45.0 °F - 40.8 °F 85% 30.32 in 10.0 mi Calm Calm - N/A   Clear
6:38 AM 48.4 °F - 43.3 °F 83% 30.32 in 10.0 mi Calm Calm - N/A   Clear
6:55 AM 50.2 °F - 43.7 °F 78% 30.32 in 10.0 mi Calm Calm - N/A   Clear
7:15 AM 52.5 °F - 44.1 °F 73% 30.32 in 10.0 mi Calm Calm - N/A   Clear
7:16 AM 52.3 °F - 44.2 °F 74% 30.32 in 10.0 mi Calm Calm - N/A   Clear
7:35 AM 54.7 °F - 46.4 °F 74% 30.33 in 10.0 mi Calm Calm - N/A   Clear
7:36 AM 54.9 °F - 46.4 °F 73% 30.33 in 10.0 mi Calm Calm - N/A   Clear
7:58 AM 57.9 °F - 48.2 °F 70% 30.33 in 10.0 mi Calm Calm - N/A   Clear
8:17 AM 61.0 °F - 48.4 °F 63% 30.33 in 10.0 mi Calm Calm - N/A   Clear
8:35 AM 63.7 °F - 49.1 °F 59% 30.33 in 10.0 mi Calm Calm - N/A   Clear
8:55 AM 66.4 °F - 43.0 °F 43% 30.33 in 10.0 mi South 4.6 mph - N/A   Clear
8:56 AM 66.4 °F - 42.6 °F 42% 30.33 in 10.0 mi SSE 4.6 mph - N/A   Clear
9:15 AM 68.0 °F - 40.5 °F 37% 30.33 in 10.0 mi SSE 4.6 mph - N/A   Clear
9:19 AM 68.2 °F - 42.8 °F 40% 30.33 in 10.0 mi Calm Calm - N/A   Clear
9:37 AM 69.4 °F - 42.3 °F 37% 30.33 in 10.0 mi Calm Calm - N/A   Clear
9:55 AM 70.2 °F - 41.7 °F 36% 30.33 in 10.0 mi Calm Calm - N/A   Clear
10:15 AM 71.4 °F - 41.7 °F 34% 30.33 in 10.0 mi Calm Calm - N/A   Clear
10:16 AM 71.6 °F - 42.1 °F 34% 30.33 in 10.0 mi Calm Calm - N/A   Clear
10:35 AM 73.2 °F - 41.7 °F 32% 30.33 in 10.0 mi West 4.6 mph - N/A   Clear
10:36 AM 73.2 °F - 41.9 °F 32% 30.32 in 10.0 mi West 4.6 mph - N/A   Clear
10:58 AM 74.3 °F - 42.3 °F 32% 30.32 in 10.0 mi WSW 4.6 mph - N/A   Clear
11:16 AM 74.5 °F - 43.5 °F 33% 30.32 in 10.0 mi West 4.6 mph - N/A   Clear
11:35 AM 75.2 °F - 45.0 °F 34% 30.32 in 10.0 mi West 6.9 mph - N/A   Clear
11:55 AM 75.2 °F - 44.2 °F 33% 30.32 in 10.0 mi SW 5.8 mph - N/A   Clear
11:56 AM 75.2 °F - 44.1 °F 33% 30.32 in 10.0 mi WSW 5.8 mph - N/A   Clear
12:20 PM 76.6 °F - 44.6 °F 32% 30.31 in 10.0 mi SW 5.8 mph - N/A   Clear
12:37 PM 77.0 °F - 45.0 °F 32% 30.30 in 10.0 mi West 5.8 mph - N/A   Clear
12:56 PM 77.9 °F - 44.8 °F 31% 30.30 in 10.0 mi WSW 6.9 mph - N/A   Clear
1:15 PM 78.4 °F - 43.7 °F 29% 30.29 in 10.0 mi WSW 8.1 mph - N/A   Clear
1:16 PM 78.4 °F - 43.7 °F 29% 30.29 in 10.0 mi SW 6.9 mph - N/A   Clear
1:35 PM 79.2 °F - 43.3 °F 28% 30.28 in 10.0 mi SSW 5.8 mph - N/A   Clear
1:36 PM 79.2 °F - 43.2 °F 28% 30.28 in 10.0 mi SSW 4.6 mph - N/A   Clear
1:59 PM 79.9 °F - 43.0 °F 27% 30.27 in 10.0 mi SSW 5.8 mph - N/A   Clear
2:16 PM 79.9 °F - 45.0 °F 29% 30.27 in 10.0 mi SW 5.8 mph - N/A   Clear
2:36 PM 80.1 °F - 42.3 °F 26% 30.26 in 10.0 mi WSW 5.8 mph - N/A   Clear
2:55 PM 80.4 °F - 40.8 °F 24% 30.25 in 10.0 mi Calm Calm - N/A   Clear
2:56 PM 80.2 °F - 40.8 °F 25% 30.25 in 10.0 mi Calm Calm - N/A   Clear
3:15 PM 80.4 °F - 42.3 °F 26% 30.25 in 10.0 mi SW 8.1 mph - N/A   Clear
3:20 PM 80.6 °F - 42.8 °F 26% 30.25 in 10.0 mi WSW 3.5 mph - N/A   Clear
3:37 PM 81.5 °F - 42.4 °F 25% 30.24 in 10.0 mi SW 3.5 mph - N/A   Clear
3:56 PM 81.5 °F - 42.6 °F 25% 30.25 in 10.0 mi WSW 5.8 mph - N/A   Clear
4:15 PM 81.1 °F - 43.3 °F 26% 30.24 in 10.0 mi West 3.5 mph - N/A   Clear
4:35 PM 81.7 °F - 43.5 °F 26% 30.23 in 10.0 mi WSW 3.5 mph - N/A   Clear
4:58 PM 81.7 °F - 43.7 °F 26% 30.23 in 10.0 mi West 4.6 mph - N/A   Clear
5:16 PM 82.0 °F - 43.9 °F 26% 30.23 in 10.0 mi SW 3.5 mph - N/A   Clear
5:36 PM 81.7 °F - 41.7 °F 24% 30.22 in 10.0 mi WSW 4.6 mph - N/A   Clear
5:55 PM 81.3 °F - 41.9 °F 25% 30.22 in 10.0 mi Calm Calm - N/A   Clear
5:56 PM 81.3 °F - 42.4 °F 25% 30.22 in 10.0 mi Calm Calm - N/A   Clear
6:15 PM 80.1 °F - 43.3 °F 27% 30.23 in 10.0 mi Calm Calm - N/A   Clear
6:19 PM 80.1 °F - 48.2 °F 33% 30.23 in 10.0 mi Calm Calm - N/A   Clear
6:37 PM 73.6 °F - 54.9 °F 52% 30.22 in 10.0 mi Calm Calm - N/A   Clear
6:56 PM 72.1 °F - 58.5 °F 62% 30.22 in 10.0 mi Calm Calm - N/A   Clear
7:15 PM 73.4 °F - 59.4 °F 61% 30.22 in 10.0 mi Calm Calm - N/A   Clear
7:16 PM 73.4 °F - 58.8 °F 60% 30.22 in 10.0 mi Calm Calm - N/A   Clear
7:35 PM 70.9 °F - 58.1 °F 64% 30.22 in 10.0 mi Calm Calm - N/A   Clear
7:59 PM 69.6 °F - 56.3 °F 63% 30.22 in 10.0 mi Calm Calm - N/A   Clear
8:16 PM 68.5 °F - 56.3 °F 65% 30.22 in 10.0 mi Calm Calm - N/A   Clear
8:36 PM 66.9 °F - 55.0 °F 66% 30.22 in 10.0 mi Calm Calm - N/A   Clear
8:55 PM 64.8 °F - 54.9 °F 70% 30.22 in 10.0 mi Calm Calm - N/A   Clear
8:56 PM 64.8 °F - 54.9 °F 70% 30.22 in 10.0 mi Calm Calm - N/A   Clear
9:15 PM 64.9 °F - 52.5 °F 64% 30.22 in 10.0 mi SE 3.5 mph - N/A   Clear
9:19 PM 64.4 °F - 52.9 °F 66% 30.22 in 10.0 mi Calm Calm - N/A   Clear
9:37 PM 65.1 °F - 52.2 °F 63% 30.23 in 10.0 mi Calm Calm - N/A   Clear
9:55 PM 63.7 °F - 52.9 °F 68% 30.23 in 10.0 mi Calm Calm - N/A   Clear
10:15 PM 63.7 °F - 52.7 °F 67% 30.23 in 10.0 mi Calm Calm - N/A   Clear
10:16 PM 63.5 °F - 52.9 °F 68% 30.23 in 10.0 mi Calm Calm - N/A   Clear
10:35 PM 64.4 °F - 52.5 °F 65% 30.23 in 10.0 mi Calm Calm - N/A   Clear
10:36 PM 64.2 °F - 52.5 °F 66% 30.23 in 10.0 mi Calm Calm - N/A   Clear
10:59 PM 65.8 °F - 51.1 °F 59% 30.23 in 10.0 mi SSE 4.6 mph - N/A   Clear
11:17 PM 67.5 °F - 50.7 °F 55% 30.23 in 10.0 mi SSE 4.6 mph - N/A   Clear
11:35 PM 68.9 °F - 50.2 °F 51% 30.23 in 10.0 mi SSE 5.8 mph - N/A   Clear
11:55 PM 66.4 °F - 51.1 °F 58% 30.23 in 10.0 mi SSE 3.5 mph - N/A   Clear